createdAt,value
2022-11-17T00:02:31.806Z,89.80
2022-11-17T00:05:55.317Z,90.00
2022-11-17T00:09:20.228Z,90.10
2022-11-17T00:13:01.572Z,90.00
2022-11-17T00:16:25.047Z,90.20
2022-11-17T00:20:06.358Z,90.00
2022-11-17T00:23:46.880Z,89.60
2022-11-17T00:27:12.590Z,89.90
2022-11-17T00:30:53.640Z,90.00
2022-11-17T00:34:19.840Z,90.30
2022-11-17T00:38:04.068Z,90.70
2022-11-17T00:41:28.664Z,91.00
2022-11-17T00:44:53.563Z,91.20
2022-11-17T00:48:16.976Z,91.30
2022-11-17T00:51:40.733Z,91.40
2022-11-17T00:55:04.822Z,91.50
2022-11-17T00:58:28.303Z,91.80
2022-11-17T01:01:53.358Z,91.90
2022-11-17T01:05:17.109Z,91.70
2022-11-17T01:08:41.071Z,91.70
2022-11-17T01:12:04.806Z,91.70
2022-11-17T01:15:28.294Z,91.60
2022-11-17T01:18:54.610Z,91.50
2022-11-17T01:22:18.238Z,91.30
2022-11-17T01:25:41.676Z,91.20
2022-11-17T01:29:06.737Z,91.20
2022-11-17T01:32:30.158Z,91.00
2022-11-17T01:35:54.970Z,91.00
2022-11-17T01:39:18.456Z,91.00
2022-11-17T01:42:41.912Z,91.70
2022-11-17T01:46:08.537Z,91.70
2022-11-17T01:49:33.712Z,91.40
2022-11-17T01:53:02.247Z,91.50
2022-11-17T01:56:33.106Z,91.50
2022-11-17T02:00:02.436Z,91.60
2022-11-17T02:03:32.645Z,91.70
2022-11-17T02:07:04.153Z,91.70
2022-11-17T02:10:32.616Z,91.70
2022-11-17T02:13:57.555Z,91.50
2022-11-17T02:17:23.994Z,91.60
2022-11-17T02:21:25.320Z,91.50
2022-11-17T02:25:31.800Z,90.60
2022-11-17T02:29:07.175Z,90.30
2022-11-17T02:32:43.177Z,90.20
2022-11-17T02:36:18.971Z,90.00
2022-11-17T02:39:50.985Z,89.20
2022-11-17T02:43:38.507Z,88.60
2022-11-17T02:47:10.375Z,88.10
2022-11-17T02:50:37.450Z,87.40
2022-11-17T02:54:03.044Z,87.20
2022-11-17T02:57:31.035Z,87.10
2022-11-17T03:01:18.134Z,87.00
2022-11-17T03:04:59.931Z,87.60
2022-11-17T03:08:36.171Z,88.90
2022-11-17T03:12:10.478Z,90.20
2022-11-17T03:15:44.985Z,90.50
2022-11-17T03:19:18.577Z,90.80
2022-11-17T03:22:52.060Z,91.10
2022-11-17T03:26:24.679Z,91.50
2022-11-17T03:29:53.485Z,91.90
2022-11-17T03:33:21.739Z,91.90
2022-11-17T03:36:58.065Z,92.10
2022-11-17T03:40:27.955Z,91.70
2022-11-17T03:43:55.856Z,91.90
2022-11-17T03:47:23.653Z,91.80
2022-11-17T03:50:57.265Z,92.10
2022-11-17T03:54:20.864Z,91.90
2022-11-17T03:57:55.343Z,92.10
2022-11-17T04:01:22.082Z,91.40
2022-11-17T04:05:03.237Z,91.20
2022-11-17T04:08:29.456Z,90.90
2022-11-17T04:12:10.419Z,90.80
2022-11-17T04:15:53.688Z,90.60
2022-11-17T04:19:17.074Z,90.80
2022-11-17T04:22:40.503Z,91.10
2022-11-17T04:26:21.227Z,91.30
2022-11-17T04:29:44.645Z,91.50
2022-11-17T04:33:09.413Z,91.70
2022-11-17T04:36:37.097Z,91.90
2022-11-17T04:40:00.777Z,92.10
2022-11-17T04:43:23.295Z,92.30
2022-11-17T04:46:47.312Z,92.30
2022-11-17T04:50:12.374Z,92.20
2022-11-17T04:53:36.121Z,92.20
2022-11-17T04:56:59.937Z,92.30
2022-11-17T05:00:23.637Z,92.40
2022-11-17T05:03:50.182Z,92.40
2022-11-17T05:07:15.142Z,92.60
2022-11-17T05:10:56.162Z,92.50
2022-11-17T05:14:22.709Z,92.50
2022-11-17T05:17:45.190Z,92.30
2022-11-17T05:21:12.108Z,92.30
2022-11-17T05:24:36.597Z,92.20
2022-11-17T05:28:00.062Z,92.10
2022-11-17T05:31:24.161Z,92.10
2022-11-17T05:34:47.576Z,92.00
2022-11-17T05:38:11.207Z,92.10
2022-11-17T05:41:37.052Z,92.40
2022-11-17T05:45:00.500Z,92.30
2022-11-17T05:48:24.146Z,92.40
2022-11-17T05:51:52.502Z,92.60
2022-11-17T05:55:16.740Z,92.70
2022-11-17T05:58:48.589Z,92.70
2022-11-17T06:02:19.263Z,92.50
2022-11-17T06:05:43.640Z,91.90
2022-11-17T06:09:07.235Z,91.90
2022-11-17T06:12:30.862Z,91.80
2022-11-17T06:15:56.994Z,92.00
2022-11-17T06:19:28.642Z,91.90
2022-11-17T06:22:52.586Z,92.40
2022-11-17T06:26:17.470Z,92.80
2022-11-17T06:29:44.704Z,92.80
2022-11-17T06:33:15.266Z,92.70
2022-11-17T06:36:38.821Z,92.50
2022-11-17T06:40:06.032Z,92.30
2022-11-17T06:43:29.554Z,91.90
2022-11-17T06:46:53.039Z,91.60
2022-11-17T06:50:18.580Z,91.30
2022-11-17T06:53:42.201Z,91.10
2022-11-17T06:57:05.980Z,91.30
2022-11-17T07:00:31.575Z,91.80
2022-11-17T07:03:57.802Z,92.50
2022-11-17T07:07:22.845Z,93.10
2022-11-17T07:10:49.356Z,93.00
2022-11-17T07:14:13.276Z,93.40
2022-11-17T07:17:37.202Z,93.60
2022-11-17T07:21:04.001Z,93.70
2022-11-17T07:24:28.949Z,93.40
2022-11-17T07:28:00.338Z,93.50
2022-11-17T07:31:24.311Z,93.60
2022-11-17T07:34:47.848Z,94.20
2022-11-17T07:38:11.446Z,94.40
2022-11-17T07:41:36.481Z,95.00
2022-11-17T07:45:00.172Z,94.50
2022-11-17T07:48:24.056Z,94.70
2022-11-17T07:51:47.565Z,94.50
2022-11-17T07:55:11.403Z,94.80
2022-11-17T07:58:37.113Z,94.80
2022-11-17T08:02:00.874Z,94.90
2022-11-17T08:05:25.914Z,95.50
2022-11-17T08:08:49.708Z,95.70
2022-11-17T08:12:13.256Z,95.70
2022-11-17T08:15:38.168Z,95.80
2022-11-17T08:19:01.780Z,95.60
2022-11-17T08:22:25.856Z,96.00
2022-11-17T08:25:49.412Z,96.00
2022-11-17T08:29:12.965Z,96.00
2022-11-17T08:32:37.832Z,96.10
2022-11-17T08:36:03.031Z,95.10
2022-11-17T08:39:26.754Z,95.30
2022-11-17T08:43:00.712Z,94.80
2022-11-17T08:46:25.816Z,94.50
2022-11-17T08:49:50.786Z,94.80
2022-11-17T08:53:16.540Z,94.20
2022-11-17T08:56:40.305Z,93.90
2022-11-17T09:00:05.082Z,94.40
2022-11-17T09:03:28.672Z,94.60
2022-11-17T09:06:53.589Z,95.40
2022-11-17T09:10:17.420Z,95.20
2022-11-17T09:13:42.140Z,95.20
2022-11-17T09:17:05.804Z,95.10
2022-11-17T09:20:31.785Z,95.30
2022-11-17T09:23:57.287Z,95.50
2022-11-17T09:27:20.921Z,94.20
2022-11-17T09:30:44.459Z,94.70
2022-11-17T09:34:08.418Z,94.80
2022-11-17T09:37:31.982Z,94.80
2022-11-17T09:40:58.497Z,95.40
2022-11-17T09:44:39.763Z,94.70
2022-11-17T09:48:42.043Z,95.00
2022-11-17T09:52:06.552Z,95.30
2022-11-17T09:55:37.205Z,94.50
2022-11-17T09:59:12.018Z,93.00
2022-11-17T10:02:35.790Z,92.40
2022-11-17T10:06:01.809Z,93.10
2022-11-17T10:09:42.112Z,92.80
2022-11-17T10:13:14.323Z,92.00
2022-11-17T10:16:42.579Z,92.10
2022-11-17T10:20:17.439Z,92.40
2022-11-17T10:23:47.320Z,90.80
2022-11-17T10:27:23.399Z,92.60
2022-11-17T10:30:55.758Z,93.20
2022-11-17T10:34:40.589Z,95.10
2022-11-17T10:38:14.279Z,95.30
2022-11-17T10:41:42.357Z,99.20
2022-11-17T10:45:16.692Z,98.50
2022-11-17T10:48:55.941Z,99.90
2022-11-17T10:52:24.985Z,97.30
2022-11-17T10:55:59.156Z,91.50
2022-11-17T10:59:30.735Z,88.80
2022-11-17T11:03:08.347Z,82.10
2022-11-17T11:06:34.491Z,80.50
2022-11-17T11:10:08.087Z,78.70
2022-11-17T11:13:42.371Z,76.50
2022-11-17T11:17:13.934Z,77.70
2022-11-17T11:20:50.165Z,76.10
2022-11-17T11:24:26.461Z,78.20
2022-11-17T11:28:21.024Z,79.50
2022-11-17T11:32:07.787Z,79.10
2022-11-17T11:35:44.945Z,80.60
2022-11-17T11:39:28.850Z,80.40
2022-11-17T11:42:59.471Z,81.50
2022-11-17T11:46:42.983Z,82.90
2022-11-17T11:50:17.061Z,82.50
2022-11-17T11:53:52.332Z,82.30
2022-11-17T11:57:23.279Z,80.50
2022-11-17T12:00:50.034Z,80.90
2022-11-17T12:04:29.957Z,82.10
2022-11-17T12:08:05.966Z,80.50
2022-11-17T12:11:52.012Z,81.00
2022-11-17T12:15:36.967Z,82.40
2022-11-17T12:19:00.975Z,79.90
2022-11-17T12:23:03.665Z,81.70
2022-11-17T12:26:30.095Z,81.60
2022-11-17T12:29:53.565Z,83.20
2022-11-17T12:33:17.075Z,82.90
2022-11-17T12:36:40.775Z,81.00
2022-11-17T12:40:09.628Z,82.60
2022-11-17T12:43:34.177Z,81.90
2022-11-17T12:47:11.729Z,81.30
2022-11-17T12:51:03.475Z,81.10
2022-11-17T12:54:39.901Z,81.40
2022-11-17T12:58:19.533Z,83.20
2022-11-17T13:01:57.479Z,82.40
2022-11-17T13:05:25.113Z,82.80
2022-11-17T13:08:57.822Z,83.10
2022-11-17T13:12:27.036Z,82.90
2022-11-17T13:15:56.053Z,83.10
2022-11-17T13:19:37.277Z,82.90
2022-11-17T13:23:02.133Z,81.90
2022-11-17T13:26:28.382Z,83.40
2022-11-17T13:29:52.289Z,83.30
2022-11-17T13:33:24.141Z,83.30
2022-11-17T13:36:54.868Z,83.00
2022-11-17T13:40:24.235Z,81.80
2022-11-17T13:43:50.688Z,81.30
2022-11-17T13:47:21.332Z,81.60
2022-11-17T13:50:46.924Z,79.50
2022-11-17T13:54:18.655Z,82.00
2022-11-17T13:57:55.834Z,80.90
2022-11-17T14:01:24.895Z,82.60
2022-11-17T14:05:23.123Z,81.20
2022-11-17T14:09:06.302Z,79.90
2022-11-17T14:12:29.860Z,80.70
2022-11-17T14:16:00.820Z,82.30
2022-11-17T14:19:34.385Z,81.80
2022-11-17T14:23:03.690Z,82.20
2022-11-17T14:26:28.864Z,82.00
2022-11-17T14:29:52.426Z,82.50
2022-11-17T14:33:15.993Z,82.80
2022-11-17T14:36:40.970Z,83.00
2022-11-17T14:40:05.853Z,82.60
2022-11-17T14:43:30.796Z,82.50
2022-11-17T14:46:54.404Z,82.00
2022-11-17T14:50:20.185Z,82.00
2022-11-17T14:53:44.534Z,81.70
2022-11-17T14:57:08.071Z,81.70
2022-11-17T15:00:33.271Z,81.70
2022-11-17T15:03:59.931Z,81.20
2022-11-17T15:07:23.608Z,81.70
2022-11-17T15:10:47.434Z,81.50
2022-11-17T15:14:12.564Z,81.90
2022-11-17T15:17:37.531Z,82.50
2022-11-17T15:21:02.939Z,81.50
2022-11-17T15:24:26.493Z,81.80
2022-11-17T15:27:49.984Z,82.00
2022-11-17T15:31:16.624Z,82.00
2022-11-17T15:34:41.446Z,81.90
2022-11-17T15:38:05.044Z,81.90
2022-11-17T15:41:32.561Z,82.10
2022-11-17T15:44:56.543Z,81.90
2022-11-17T15:48:20.128Z,82.10
2022-11-17T15:51:45.128Z,82.50
2022-11-17T15:55:09.463Z,82.50
2022-11-17T15:58:33.197Z,82.60
2022-11-17T16:01:57.167Z,82.60
2022-11-17T16:05:20.951Z,82.70
2022-11-17T16:08:46.340Z,82.50
2022-11-17T16:12:09.954Z,82.00
2022-11-17T16:15:33.609Z,82.10
2022-11-17T16:18:57.762Z,81.90
2022-11-17T16:22:21.593Z,81.80
2022-11-17T16:25:49.407Z,81.70
2022-11-17T16:29:13.296Z,81.60
2022-11-17T16:32:37.052Z,81.30
2022-11-17T16:36:06.124Z,79.40
2022-11-17T16:39:29.606Z,81.20
2022-11-17T16:42:54.502Z,81.30
2022-11-17T16:46:20.858Z,81.00
2022-11-17T16:49:47.873Z,81.00
2022-11-17T16:53:14.505Z,81.40
2022-11-17T16:56:38.107Z,81.80
2022-11-17T17:00:03.426Z,82.60
2022-11-17T17:03:26.925Z,82.90
2022-11-17T17:06:50.516Z,83.50
2022-11-17T17:10:14.180Z,83.80
2022-11-17T17:13:38.195Z,84.00
2022-11-17T17:17:03.110Z,84.30
2022-11-17T17:20:26.650Z,84.00
2022-11-17T17:23:50.276Z,84.50
2022-11-17T17:27:13.847Z,84.60
2022-11-17T17:30:37.408Z,84.20
2022-11-17T17:34:02.802Z,83.90
2022-11-17T17:37:26.406Z,83.60
2022-11-17T17:40:50.639Z,83.90
2022-11-17T17:44:18.141Z,84.10
2022-11-17T17:47:41.693Z,84.20
2022-11-17T17:51:09.986Z,84.60
2022-11-17T17:54:33.683Z,84.50
2022-11-17T17:57:57.394Z,84.80
2022-11-17T18:01:24.234Z,84.80
2022-11-17T18:04:47.833Z,84.70
2022-11-17T18:08:13.243Z,84.70
2022-11-17T18:11:37.347Z,85.20
2022-11-17T18:15:01.963Z,84.60
2022-11-17T18:18:25.726Z,84.50
2022-11-17T18:21:49.373Z,84.40
2022-11-17T18:25:17.802Z,84.30
2022-11-17T18:28:41.662Z,84.70
2022-11-17T18:32:05.656Z,84.50
2022-11-17T18:35:29.208Z,84.50
2022-11-17T18:38:53.237Z,84.40
2022-11-17T18:42:19.803Z,84.30
2022-11-17T18:45:43.638Z,84.10
2022-11-17T18:49:07.261Z,84.00
2022-11-17T18:52:31.575Z,84.00
2022-11-17T18:56:00.549Z,83.90
2022-11-17T18:59:25.515Z,83.80
2022-11-17T19:02:49.058Z,83.60
2022-11-17T19:06:17.382Z,83.80
2022-11-17T19:09:40.853Z,83.70
2022-11-17T19:13:04.670Z,84.50
2022-11-17T19:16:30.248Z,84.30
2022-11-17T19:19:53.735Z,84.00
2022-11-17T19:23:17.206Z,84.00
2022-11-17T19:26:41.005Z,84.20
2022-11-17T19:30:05.185Z,84.10
2022-11-17T19:33:32.777Z,83.70
2022-11-17T19:36:56.370Z,82.90
2022-11-17T19:40:20.083Z,82.80
2022-11-17T19:43:45.663Z,82.00
2022-11-17T19:47:09.782Z,82.10
2022-11-17T19:50:34.736Z,81.70
2022-11-17T19:54:03.507Z,81.80
2022-11-17T19:57:26.996Z,81.80
2022-11-17T20:00:50.708Z,80.60
2022-11-17T20:04:14.359Z,80.60
2022-11-17T20:07:39.955Z,80.50
2022-11-17T20:11:06.634Z,80.60
2022-11-17T20:14:31.630Z,81.20
2022-11-17T20:17:55.206Z,81.30
2022-11-17T20:21:19.462Z,81.80
2022-11-17T20:24:44.738Z,81.80
2022-11-17T20:28:08.589Z,81.80
2022-11-17T20:31:36.174Z,82.00
2022-11-17T20:34:59.987Z,82.10
2022-11-17T20:38:23.472Z,82.30
2022-11-17T20:41:48.389Z,82.10
2022-11-17T20:45:12.512Z,82.20
2022-11-17T20:48:36.751Z,82.70
2022-11-17T20:52:00.382Z,83.00
2022-11-17T20:55:24.050Z,83.00
2022-11-17T20:58:49.354Z,82.80
2022-11-17T21:02:13.291Z,83.30
2022-11-17T21:05:37.224Z,83.50
2022-11-17T21:09:00.784Z,83.80
2022-11-17T21:12:24.393Z,84.10
2022-11-17T21:15:49.404Z,84.20
2022-11-17T21:19:14.165Z,84.60
2022-11-17T21:22:38.083Z,85.30
2022-11-17T21:26:05.335Z,85.50
2022-11-17T21:29:29.080Z,85.20
2022-11-17T21:32:55.025Z,85.30
2022-11-17T21:36:19.342Z,85.60
2022-11-17T21:39:43.054Z,86.40
2022-11-17T21:43:06.686Z,86.70
2022-11-17T21:46:32.717Z,86.50
2022-11-17T21:49:57.629Z,86.20
2022-11-17T21:53:21.618Z,86.10
2022-11-17T21:56:46.108Z,85.90
2022-11-17T22:00:11.501Z,85.90
2022-11-17T22:03:35.565Z,86.00
2022-11-17T22:07:00.504Z,86.30
2022-11-17T22:10:24.417Z,86.50
2022-11-17T22:13:48.011Z,87.10
2022-11-17T22:17:11.512Z,87.30
2022-11-17T22:20:35.167Z,88.10
2022-11-17T22:24:00.453Z,88.80
2022-11-17T22:27:26.341Z,89.50
2022-11-17T22:30:49.933Z,89.60
2022-11-17T22:34:14.012Z,89.90
2022-11-17T22:37:37.471Z,89.80
2022-11-17T22:41:03.605Z,89.80
2022-11-17T22:44:27.088Z,90.10
2022-11-17T22:47:50.552Z,90.10
2022-11-17T22:51:34.983Z,90.10
2022-11-17T22:54:58.485Z,90.30
2022-11-17T22:58:23.388Z,90.30
2022-11-17T23:01:46.855Z,90.10
2022-11-17T23:05:10.628Z,90.00
2022-11-17T23:08:34.584Z,89.80
2022-11-17T23:11:58.154Z,89.90
2022-11-17T23:15:23.259Z,90.10
2022-11-17T23:18:46.793Z,90.30
2022-11-17T23:22:11.708Z,90.60
2022-11-17T23:25:35.218Z,91.00
2022-11-17T23:28:59.067Z,91.30
2022-11-17T23:32:23.935Z,91.20
2022-11-17T23:35:47.496Z,91.50
2022-11-17T23:39:11.126Z,91.70
2022-11-17T23:42:38.708Z,91.80
2022-11-17T23:46:07.878Z,92.00
2022-11-17T23:49:32.885Z,92.20
2022-11-17T23:52:56.391Z,92.10
2022-11-17T23:56:21.379Z,92.10
2022-11-17T23:59:44.988Z,92.20
